Time;durP1;ratioP1;P1;durP2;ratioP2;P2;SDS_P1;SDS_P2;PMS_P1;PMS_P2;Temp;Humidity;BMP_temperature;BMP_pressure;BME280_temperature;BME280_humidity;BME280_pressure;Samples;Min_cycle;Max_cycle;Signal;HPM_P1;HPM_P2
2021/03/21 00:01:48;;;;;;;6.70;5.23;;;;;;;5.55;35.56;98522.72;8332105;28;20254;-63
2021/03/21 00:05:51;;;;;;;5.83;4.77;;;;;;;5.52;35.62;98518.50;8330922;28;20301;-63
2021/03/21 00:09:52;;;;;;;6.03;4.87;;;;;;;5.66;35.93;98511.41;8330837;28;20216;-63
2021/03/21 00:13:54;;;;;;;5.90;4.53;;;;;;;5.73;35.93;98513.88;8331049;28;20211;-63
2021/03/21 00:17:57;;;;;;;5.17;4.67;;;;;;;5.72;35.66;98517.31;8332088;28;20254;-63
2021/03/21 00:21:59;;;;;;;5.40;4.43;;;;;;;5.74;35.71;98506.13;8331020;28;20266;-63
2021/03/21 00:26:02;;;;;;;5.97;4.73;;;;;;;5.78;35.79;98504.38;8331106;28;20339;-63
2021/03/21 00:30:06;;;;;;;5.77;5.03;;;;;;;5.74;36.38;98503.56;8330310;28;20315;-64
2021/03/21 00:34:09;;;;;;;7.77;3.60;;;;;;;8.66;61.68;98503.22;8331623;28;20200;-62
2021/03/21 00:38:18;;;;;;;6.35;5.10;;;;;;;7.09;34.62;98492.47;8328021;28;20547;-65
2021/03/21 00:42:19;;;;;;;6.03;4.57;;;;;;;6.23;35.26;98483.91;8331042;28;20503;-64
2021/03/21 00:46:22;;;;;;;7.80;4.70;;;;;;;6.14;36.06;98477.19;8331043;28;20625;-64
2021/03/21 00:50:28;;;;;;;4.30;3.90;;;;;;;6.09;35.79;98473.84;8329828;28;20292;-64
2021/03/21 00:54:30;;;;;;;5.03;4.27;;;;;;;5.95;36.14;98475.81;8330903;28;20220;-64
2021/03/21 00:58:32;;;;;;;5.50;4.40;;;;;;;5.92;36.30;98463.88;8329838;28;20292;-64
2021/03/21 01:02:34;;;;;;;6.27;4.80;;;;;;;5.86;36.28;98466.53;8331121;28;20550;-64
2021/03/21 01:06:37;;;;;;;5.60;4.17;;;;;;;5.90;35.87;98451.91;8330228;28;20738;-64
2021/03/21 01:10:39;;;;;;;5.77;4.50;;;;;;;5.71;35.61;98443.66;8330674;28;20223;-64
2021/03/21 01:14:41;;;;;;;5.80;4.80;;;;;;;5.87;35.62;98437.38;8330774;28;20600;-64
2021/03/21 01:18:43;;;;;;;6.57;4.57;;;;;;;5.86;36.43;98441.69;8329623;28;20215;-64
2021/03/21 01:22:46;;;;;;;6.63;4.50;;;;;;;5.75;36.39;98419.59;8331245;28;20235;-63
2021/03/21 01:26:48;;;;;;;5.90;4.60;;;;;;;5.82;36.58;98414.31;8329413;28;20251;-64
2021/03/21 01:30:51;;;;;;;5.50;5.00;;;;;;;5.77;36.98;98411.00;8329671;28;20594;-63
2021/03/21 01:34:53;;;;;;;7.07;4.87;;;;;;;5.80;37.07;98413.50;8330423;28;20208;-63
2021/03/21 01:38:57;;;;;;;6.43;5.20;;;;;;;5.75;36.59;98404.19;8328916;28;20240;-62
2021/03/21 01:42:59;;;;;;;5.87;4.10;;;;;;;5.82;36.64;98403.19;8329491;28;20223;-62
2021/03/21 01:47:19;;;;;;;5.97;4.50;;;;;;;5.86;36.24;98398.00;8328952;28;20235;-62
2021/03/21 01:51:25;;;;;;;5.63;4.63;;;;;;;5.84;36.12;98381.72;8329244;28;20197;-62
2021/03/21 01:55:27;;;;;;;5.73;4.10;;;;;;;5.85;35.57;98372.31;8330979;28;20216;-62
2021/03/21 01:59:47;;;;;;;4.60;3.97;;;;;;;5.84;35.69;98365.47;8328554;28;20287;-62
2021/03/21 02:03:49;;;;;;;5.30;3.97;;;;;;;5.70;35.76;98367.47;8328707;28;20205;-62
2021/03/21 02:08:25;;;;;;;5.40;4.20;;;;;;;5.63;35.69;98351.28;8328207;28;20236;-62
2021/03/21 02:12:36;;;;;;;4.60;4.10;;;;;;;5.74;35.89;98338.25;8334479;28;20200;-63
2021/03/21 02:16:41;;;;;;;5.90;3.80;;;;;;;5.78;35.86;98335.56;8336342;28;20196;-63
2021/03/21 02:20:55;;;;;;;6.17;4.00;;;;;;;5.79;35.82;98336.44;8334480;28;20193;-62
2021/03/21 02:25:32;;;;;;;4.20;3.80;;;;;;;5.74;35.77;98327.97;8335347;28;20216;-62
2021/03/21 02:29:41;;;;;;;5.30;3.90;;;;;;;5.85;35.75;98323.47;8330776;28;20239;-63
2021/03/21 02:33:48;;;;;;;4.80;3.87;;;;;;;5.85;35.77;98318.34;8335278;28;20200;-63
2021/03/21 02:37:56;;;;;;;6.47;4.20;;;;;;;5.80;35.95;98315.00;8335101;28;20239;-63
2021/03/21 02:42:04;;;;;;;5.87;3.80;;;;;;;5.79;36.21;98318.47;8335281;28;20526;-62
2021/03/21 02:46:10;;;;;;;5.30;3.70;;;;;;;5.74;36.33;98309.97;8334473;28;20528;-63
2021/03/21 02:50:18;;;;;;;5.80;3.90;;;;;;;5.71;37.14;98310.03;8333315;28;20193;-62
2021/03/21 02:54:23;;;;;;;5.07;3.90;;;;;;;5.68;36.24;98304.06;8333335;28;20211;-63
2021/03/21 02:58:28;;;;;;;4.53;3.43;;;;;;;5.84;36.42;98289.19;8333201;28;20204;-63
2021/03/21 03:02:34;;;;;;;4.90;3.40;;;;;;;5.84;36.00;98291.75;8334379;28;20196;-63
2021/03/21 03:06:40;;;;;;;5.63;3.73;;;;;;;5.81;36.08;98291.84;8334136;28;20223;-63
2021/03/21 03:10:46;;;;;;;4.47;3.60;;;;;;;5.85;36.49;98288.31;8333792;28;20201;-63
2021/03/21 03:14:48;;;;;;;6.17;3.57;;;;;;;5.83;36.29;98269.53;8334130;28;20330;-63
2021/03/21 03:18:59;;;;;;;6.20;3.80;;;;;;;5.92;35.89;98271.06;8333156;28;20219;-63
2021/03/21 03:23:02;;;;;;;5.40;3.47;;;;;;;5.97;35.62;98269.25;8333798;28;20215;-63
2021/03/21 03:27:10;;;;;;;4.40;3.37;;;;;;;5.96;35.17;98265.00;8333503;28;20263;-62
2021/03/21 03:31:16;;;;;;;6.20;3.77;;;;;;;5.99;35.33;98256.38;8332519;28;20197;-63
2021/03/21 03:35:22;;;;;;;4.90;3.70;;;;;;;5.83;35.67;98258.41;8332513;28;20231;-63
2021/03/21 03:39:24;;;;;;;4.83;3.70;;;;;;;5.88;35.65;98249.72;8332542;28;20668;-63
2021/03/21 03:43:31;;;;;;;4.70;3.53;;;;;;;5.76;35.83;98243.97;8332461;28;20219;-62
2021/03/21 03:47:40;;;;;;;4.93;3.93;;;;;;;5.86;35.89;98245.47;8333221;28;20213;-62
2021/03/21 03:51:51;;;;;;;3.93;3.40;;;;;;;5.82;36.35;98243.84;8332652;28;20201;-62
2021/03/21 03:55:57;;;;;;;4.43;3.30;;;;;;;5.88;36.37;98239.44;8332487;28;20626;-63
2021/03/21 04:00:10;;;;;;;4.50;3.43;;;;;;;5.99;36.46;98236.66;8331162;28;20200;-63
2021/03/21 04:04:17;;;;;;;4.47;3.60;;;;;;;5.79;36.36;98224.19;8332471;28;20494;-63
2021/03/21 04:08:28;;;;;;;4.50;3.60;;;;;;;5.92;36.39;98219.66;8330886;28;20216;-63
2021/03/21 04:12:33;;;;;;;4.67;3.80;;;;;;;5.82;36.71;98215.56;8331603;28;20199;-63
2021/03/21 04:16:38;;;;;;;8.43;4.17;;;;;;;5.94;36.45;98206.75;8332627;28;20209;-63
2021/03/21 04:20:43;;;;;;;4.10;3.40;;;;;;;5.76;36.66;98198.56;8332510;28;20204;-62
2021/03/21 04:24:49;;;;;;;4.80;3.37;;;;;;;5.88;36.52;98198.31;8331589;28;20189;-63
2021/03/21 04:28:53;;;;;;;4.83;3.73;;;;;;;5.87;36.73;98198.34;8331599;28;20597;-63
2021/03/21 04:32:56;;;;;;;5.77;3.80;;;;;;;5.91;36.41;98189.69;8329798;28;20208;-63
2021/03/21 04:36:58;;;;;;;5.13;3.60;;;;;;;5.90;36.81;98202.56;8331687;28;20255;-62
2021/03/21 04:41:03;;;;;;;5.40;2.90;;;;;;;5.78;37.54;98207.06;8331266;28;20306;-62
2021/03/21 04:45:09;;;;;;;3.50;3.20;;;;;;;5.89;37.31;98204.28;8330711;28;20227;-62
2021/03/21 04:49:11;;;;;;;7.37;4.00;;;;;;;5.90;37.17;98212.84;8331079;28;20243;-62
2021/03/21 04:53:18;;;;;;;4.93;3.50;;;;;;;5.92;37.28;98209.38;8330153;28;20220;-63
2021/03/21 04:57:26;;;;;;;5.17;3.70;;;;;;;5.84;37.43;98212.06;8331036;28;20213;-63
2021/03/21 05:01:32;;;;;;;5.53;3.80;;;;;;;5.81;37.80;98198.47;8330661;28;20197;-63
2021/03/21 05:05:37;;;;;;;5.53;3.80;;;;;;;5.90;37.62;98207.69;8330573;28;20235;-63
2021/03/21 05:09:43;;;;;;;8.23;4.20;;;;;;;5.91;38.07;98202.53;8330937;28;20292;-63
2021/03/21 05:13:57;;;;;;;4.73;3.80;;;;;;;5.77;39.16;98194.25;8330753;28;20197;-63
2021/03/21 05:18:10;;;;;;;4.37;3.47;;;;;;;5.90;38.02;98182.00;8330892;28;20231;-62
2021/03/21 05:22:22;;;;;;;4.97;3.60;;;;;;;5.91;37.59;98184.53;8330640;28;20228;-63
2021/03/21 05:26:29;;;;;;;6.43;3.83;;;;;;;5.83;37.85;98177.00;8330591;28;20242;-63
2021/03/21 05:30:34;;;;;;;6.13;4.17;;;;;;;5.97;38.01;98171.56;8329617;28;20193;-64
2021/03/21 05:34:36;;;;;;;4.33;3.70;;;;;;;5.99;38.16;98169.81;8330167;28;20208;-63
2021/03/21 05:38:43;;;;;;;10.57;4.03;;;;;;;5.84;38.33;98163.25;8330215;28;20644;-63
2021/03/21 05:43:24;;;;;;;7.83;3.53;;;;;;;5.74;38.09;98156.63;8329822;28;20196;-63
2021/03/21 05:47:45;;;;;;;5.53;3.80;;;;;;;5.88;38.21;98154.63;8327049;28;20239;-64
2021/03/21 05:52:23;;;;;;;8.73;4.67;;;;;;;5.66;38.64;98143.94;8335710;28;20199;-62
2021/03/21 05:56:56;;;;;;;6.17;4.57;;;;;;;5.77;38.63;98142.84;8326137;28;20204;-63
2021/03/21 06:01:31;;;;;;;7.43;5.20;;;;;;;5.78;39.46;98136.84;8336306;28;20196;-63
2021/03/21 06:06:08;;;;;;;6.33;5.20;;;;;;;5.62;39.84;98144.06;8335361;28;20193;-63
2021/03/21 06:10:42;;;;;;;7.07;5.70;;;;;;;5.75;39.78;98142.91;8322600;28;20216;-63
2021/03/21 06:15:13;;;;;;;7.27;5.67;;;;;;;5.70;40.74;98146.47;8334640;28;20210;-63
2021/03/21 06:19:49;;;;;;;7.97;6.40;;;;;;;5.79;41.24;98135.97;8335953;28;20200;-64
2021/03/21 06:24:02;;;;;;;8.77;7.27;;;;;;;5.65;42.02;98142.28;8332120;28;20205;-63
2021/03/21 06:28:37;;;;;;;9.43;7.33;;;;;;;5.84;41.96;98136.72;8334287;28;20217;-63
2021/03/21 06:32:59;;;;;;;9.07;7.27;;;;;;;5.75;42.64;98137.78;8333953;28;20557;-63
2021/03/21 06:37:03;;;;;;;8.40;6.93;;;;;;;5.76;42.54;98133.47;8334092;28;20235;-63
2021/03/21 06:41:28;;;;;;;9.93;6.73;;;;;;;5.83;42.54;98125.59;8334547;28;20236;-64
2021/03/21 06:46:00;;;;;;;15.37;7.50;;;;;;;5.64;42.93;98126.88;8335293;28;20193;-64
2021/03/21 06:50:17;;;;;;;9.00;7.20;;;;;;;5.96;42.36;98118.47;8334597;28;20228;-64
2021/03/21 06:54:33;;;;;;;9.13;7.37;;;;;;;6.00;42.18;98126.97;8334570;28;20196;-64
2021/03/21 06:59:10;;;;;;;12.20;7.80;;;;;;;5.95;42.40;98124.50;8332897;28;20193;-64
2021/03/21 07:03:50;;;;;;;11.87;9.07;;;;;;;5.95;42.62;98115.91;8334572;28;20211;-63
2021/03/21 07:08:11;;;;;;;8.63;7.73;;;;;;;5.83;42.69;98092.19;8319930;28;20233;-64
2021/03/21 07:12:27;;;;;;;9.93;8.23;;;;;;;6.03;42.36;98091.72;8301994;28;20623;-63
2021/03/21 07:17:11;;;;;;;8.57;7.67;;;;;;;6.01;42.47;98093.50;8301727;28;20579;-63
2021/03/21 07:21:46;;;;;;;9.63;7.63;;;;;;;5.85;42.41;98079.28;8298072;28;20205;-64
2021/03/21 07:26:07;;;;;;;9.90;8.00;;;;;;;5.83;42.33;98063.91;8293515;28;20240;-64
2021/03/21 07:30:11;;;;;;;8.70;7.80;;;;;;;6.06;41.87;98062.53;8297783;28;20240;-63
2021/03/21 07:34:33;;;;;;;9.83;8.37;;;;;;;6.13;41.70;98058.06;8301008;28;20304;-64
2021/03/21 07:38:52;;;;;;;11.37;8.20;;;;;;;6.06;41.73;98050.53;8300342;28;20237;-64
2021/03/21 07:43:06;;;;;;;12.07;7.80;;;;;;;6.39;40.92;98054.84;8299680;28;20200;-64
2021/03/21 07:47:26;;;;;;;11.97;8.93;;;;;;;6.19;41.14;98051.06;8299081;28;20225;-63
2021/03/21 07:51:40;;;;;;;10.00;8.80;;;;;;;6.26;41.42;98056.88;8300904;28;20274;-63
2021/03/21 07:55:48;;;;;;;11.20;9.23;;;;;;;6.32;41.76;98049.03;8299553;28;20197;-63
2021/03/21 07:59:51;;;;;;;11.67;9.10;;;;;;;6.40;41.90;98052.25;8297514;28;20610;-64
2021/03/21 08:03:57;;;;;;;12.13;9.27;;;;;;;6.32;42.61;98043.03;8299502;28;20209;-63
2021/03/21 08:08:00;;;;;;;12.27;9.27;;;;;;;6.39;42.84;98040.25;8296200;28;20210;-63
2021/03/21 08:12:06;;;;;;;12.30;10.13;;;;;;;6.51;42.48;98040.81;8297625;28;20244;-64
2021/03/21 08:16:14;;;;;;;11.33;10.17;;;;;;;6.34;42.75;98038.69;8299843;28;20197;-63
2021/03/21 08:20:20;;;;;;;12.70;10.33;;;;;;;6.45;42.50;98042.69;8297124;28;20209;-63
2021/03/21 08:24:26;;;;;;;13.20;11.60;;;;;;;6.37;43.08;98036.88;8299566;28;20248;-64
2021/03/21 08:28:36;;;;;;;13.57;11.37;;;;;;;6.34;43.36;98043.81;8298494;28;20614;-63
2021/03/21 08:32:52;;;;;;;13.47;11.00;;;;;;;6.10;43.26;98048.72;8294903;28;20287;-64
2021/03/21 08:36:54;;;;;;;14.47;11.33;;;;;;;6.07;43.65;98053.94;8297361;28;20228;-63
2021/03/21 08:41:00;;;;;;;12.33;10.70;;;;;;;6.13;44.26;98058.94;8297711;28;20225;-64
2021/03/21 08:45:17;;;;;;;12.03;10.00;;;;;;;6.26;43.88;98059.44;8297524;28;20574;-64
2021/03/21 08:49:20;;;;;;;11.97;10.70;;;;;;;6.43;44.60;98066.75;8297444;28;20218;-63
2021/03/21 08:53:32;;;;;;;16.03;12.07;;;;;;;6.49;45.38;98060.59;8298167;28;20205;-64
2021/03/21 08:57:37;;;;;;;12.67;11.33;;;;;;;6.38;47.99;98060.88;8297727;28;20197;-64
2021/03/21 09:01:39;;;;;;;12.97;11.50;;;;;;;6.19;49.65;98071.63;8297404;28;20205;-64
2021/03/21 09:05:51;;;;;;;13.73;12.07;;;;;;;6.29;50.56;98069.69;8297111;28;20712;-64
2021/03/21 09:10:29;;;;;;;13.73;12.23;;;;;;;6.13;52.39;98056.38;8296736;28;20608;-64
2021/03/21 09:14:34;;;;;;;12.60;11.30;;;;;;;6.72;50.68;98044.53;8296711;28;20200;-63
2021/03/21 09:18:38;;;;;;;14.20;12.30;;;;;;;6.71;51.82;98040.28;8295839;28;20209;-63
2021/03/21 09:22:42;;;;;;;13.67;12.20;;;;;;;6.39;54.60;98036.84;8296446;28;20550;-63
2021/03/21 09:26:45;;;;;;;15.03;12.57;;;;;;;6.72;53.54;98045.41;8297868;28;20212;-63
2021/03/21 09:30:48;;;;;;;14.13;12.57;;;;;;;6.72;54.02;98045.41;8297681;28;20209;-63
2021/03/21 09:35:01;;;;;;;14.07;12.57;;;;;;;6.59;54.73;98046.63;8296569;28;20204;-64
2021/03/21 09:39:06;;;;;;;14.50;13.00;;;;;;;6.83;54.37;98047.66;8297503;28;20248;-63
2021/03/21 09:43:10;;;;;;;14.23;12.67;;;;;;;6.93;54.04;98041.38;8297194;28;20647;-63
2021/03/21 09:47:29;;;;;;;14.37;12.67;;;;;;;7.18;53.44;98031.19;8296927;28;20228;-63
2021/03/21 09:51:42;;;;;;;13.37;11.77;;;;;;;7.16;53.62;98032.13;8297642;28;20256;-63
2021/03/21 09:55:48;;;;;;;12.40;11.10;;;;;;;7.02;52.78;98033.34;8297241;28;20204;-63
2021/03/21 09:59:56;;;;;;;14.43;12.33;;;;;;;6.87;53.72;98040.69;8263951;28;20213;-63
2021/03/21 10:04:02;;;;;;;13.83;11.67;;;;;;;6.74;53.43;98033.31;8264615;28;20213;-63
2021/03/21 10:08:11;;;;;;;13.07;11.63;;;;;;;6.80;53.03;98038.28;8264091;28;20532;-63
2021/03/21 10:12:14;;;;;;;14.23;11.40;;;;;;;6.84;53.07;98037.31;8265087;28;20190;-63
2021/03/21 10:16:34;;;;;;;14.30;11.27;;;;;;;6.72;52.48;98027.38;8264146;28;20206;-63
2021/03/21 10:21:03;;;;;;;13.80;11.43;;;;;;;7.03;51.86;98031.66;8263905;28;20198;-64
2021/03/21 10:25:56;;;;;;;16.17;11.27;;;;;;;7.02;51.34;98017.91;8264951;28;20210;-63
2021/03/21 10:30:16;;;;;;;12.70;11.43;;;;;;;7.40;50.02;98007.34;8263699;28;20245;-63
2021/03/21 10:34:42;;;;;;;11.87;10.67;;;;;;;7.44;50.78;98008.94;8269693;28;20205;-63
2021/03/21 10:38:50;;;;;;;15.33;10.97;;;;;;;7.62;50.15;98010.94;8270063;28;20765;-63
2021/03/21 10:42:53;;;;;;;12.10;10.60;;;;;;;6.93;52.32;98005.34;8270402;28;20194;-63
2021/03/21 10:46:55;;;;;;;13.20;11.80;;;;;;;7.10;52.27;97999.69;8270216;28;20214;-64
2021/03/21 10:51:00;;;;;;;13.13;11.17;;;;;;;7.17;52.10;97993.44;8296879;28;20614;-63
2021/03/21 10:55:29;;;;;;;12.90;11.60;;;;;;;7.49;51.66;97975.31;8302569;28;20547;-63
2021/03/21 10:59:31;;;;;;;12.00;10.70;;;;;;;7.52;51.31;97981.22;8302443;28;20277;-64
2021/03/21 11:03:34;;;;;;;13.40;12.00;;;;;;;7.90;50.25;97971.41;8302248;28;20209;-63
2021/03/21 11:07:36;;;;;;;16.23;13.60;;;;;;;7.84;50.02;97976.72;8301251;28;20278;-63
2021/03/21 11:11:39;;;;;;;12.87;11.57;;;;;;;7.83;50.15;97975.06;8301547;28;20556;-63
2021/03/21 11:15:44;;;;;;;12.30;11.00;;;;;;;8.05;49.62;97964.03;8300774;28;20216;-64
2021/03/21 11:19:49;;;;;;;14.53;11.20;;;;;;;8.36;49.39;97964.66;8300860;28;20212;-64
2021/03/21 11:23:53;;;;;;;12.43;11.13;;;;;;;8.20;49.36;97969.47;8297816;28;20210;-64
2021/03/21 11:27:55;;;;;;;11.47;10.27;;;;;;;7.98;50.52;97968.56;8301021;28;20236;-63
2021/03/21 11:32:04;;;;;;;11.57;10.33;;;;;;;7.82;50.90;97969.06;8300385;28;20555;-64
2021/03/21 11:36:18;;;;;;;12.17;10.83;;;;;;;7.76;51.09;97966.69;8301234;28;20593;-64
2021/03/21 11:40:24;;;;;;;14.90;10.40;;;;;;;7.84;50.46;97961.25;8315946;28;20243;-63
2021/03/21 11:44:28;;;;;;;10.87;9.77;;;;;;;7.83;50.79;97967.34;8327199;28;20205;-63
2021/03/21 11:48:32;;;;;;;11.47;10.37;;;;;;;7.71;50.55;97960.00;8299829;28;20637;-63
2021/03/21 11:52:40;;;;;;;11.50;9.87;;;;;;;7.51;51.43;97958.06;8300459;28;20676;-63
2021/03/21 11:56:49;;;;;;;14.13;9.97;;;;;;;7.65;51.30;97953.28;8296661;28;20292;-63
2021/03/21 12:00:57;;;;;;;10.53;9.33;;;;;;;7.55;51.94;97955.34;8300478;28;20201;-63
2021/03/21 12:05:00;;;;;;;15.13;12.97;;;;;;;7.67;51.91;97953.25;8299527;28;20201;-63
2021/03/21 12:09:18;;;;;;;12.80;11.37;;;;;;;7.69;52.90;97951.47;8298323;28;20221;-63
2021/03/21 12:13:33;;;;;;;12.80;11.43;;;;;;;7.71;53.36;97949.69;8298993;28;20205;-63
2021/03/21 12:17:38;;;;;;;14.47;13.00;;;;;;;7.66;54.31;97949.00;8299330;28;20209;-63
2021/03/21 12:21:49;;;;;;;15.47;13.20;;;;;;;7.71;55.24;97945.38;8299611;28;20659;-63
2021/03/21 12:26:06;;;;;;;18.17;11.70;;;;;;;7.81;55.50;97936.44;8297865;28;20209;-63
2021/03/21 12:30:16;;;;;;;11.60;9.13;;;;;;;7.98;55.19;97922.16;8298846;28;20221;-63
2021/03/21 12:34:22;;;;;;;10.10;9.20;;;;;;;8.25;54.87;97919.50;8298327;28;20243;-63
2021/03/21 12:38:28;;;;;;;12.50;11.20;;;;;;;8.27;55.00;97903.03;8298430;28;20248;-63
2021/03/21 12:42:33;;;;;;;10.60;9.53;;;;;;;8.48;54.62;97898.03;8299021;28;20197;-63
2021/03/21 12:46:42;;;;;;;24.07;6.70;;;;;;;9.49;62.61;97899.25;8298783;28;20251;-63
2021/03/21 12:50:47;;;;;;;15.10;6.70;;;;;;;11.59;52.90;97889.84;8298372;28;20557;-62
2021/03/21 12:54:50;;;;;;;9.90;6.20;;;;;;;12.09;49.78;97892.50;8296762;28;20665;-63
2021/03/21 12:58:53;;;;;;;13.90;6.93;;;;;;;11.84;49.31;97892.03;8298594;28;20716;-63
2021/03/21 13:02:57;;;;;;;8.87;6.53;;;;;;;12.00;47.35;97885.19;8297895;28;20212;-63
2021/03/21 13:06:59;;;;;;;7.50;6.80;;;;;;;11.45;47.79;97885.34;8298151;28;20554;-63
2021/03/21 13:11:04;;;;;;;9.20;7.73;;;;;;;10.89;48.95;97879.38;8297551;28;20233;-64
2021/03/21 13:15:08;;;;;;;5.90;5.40;;;;;;;10.36;49.67;97873.16;8296850;28;20213;-64
2021/03/21 13:19:10;;;;;;;6.63;6.03;;;;;;;10.26;50.05;97853.72;8296846;28;20209;-64
2021/03/21 13:23:12;;;;;;;7.83;5.70;;;;;;;10.05;50.49;97855.53;8296596;28;20216;-65
2021/03/21 13:27:14;;;;;;;8.50;6.03;;;;;;;9.87;51.24;97855.44;8296468;28;20216;-63
2021/03/21 13:31:17;;;;;;;6.00;5.47;;;;;;;9.79;51.39;97853.19;8296771;28;20208;-64
2021/03/21 13:35:19;;;;;;;6.10;5.50;;;;;;;9.41;52.43;97841.88;8295881;28;20279;-63
2021/03/21 13:39:21;;;;;;;5.73;5.20;;;;;;;9.22;53.09;97848.72;8296198;28;20240;-63
2021/03/21 13:43:25;;;;;;;5.50;5.00;;;;;;;9.38;52.82;97842.00;8296608;28;20665;-63
2021/03/21 13:47:28;;;;;;;6.83;4.60;;;;;;;9.50;53.27;97833.75;8301458;28;20209;-64
2021/03/21 13:51:30;;;;;;;5.50;5.00;;;;;;;9.45;52.47;97827.91;8328476;28;20270;-64
2021/03/21 13:55:36;;;;;;;5.47;5.00;;;;;;;9.10;53.04;97827.63;8329624;28;20256;-63
2021/03/21 13:59:37;;;;;;;5.67;5.00;;;;;;;9.26;53.01;97833.00;8330807;28;20201;-62
2021/03/21 14:07:48;;;;;;;5.77;5.17;;;;;;;9.40;52.89;97827.25;8310584;28;20636;-82
2021/03/21 14:11:50;;;;;;;6.00;5.43;;;;;;;9.83;51.90;97814.25;8314429;28;20601;-81
2021/03/21 14:15:53;;;;;;;5.73;4.90;;;;;;;9.49;52.55;97805.38;8325001;28;20216;-82
2021/03/21 14:19:55;;;;;;;5.13;4.70;;;;;;;9.22;53.12;97804.78;8315598;28;20209;-82
2021/03/21 14:23:59;;;;;;;5.37;4.87;;;;;;;9.28;54.90;97801.94;8318124;28;20208;-82
2021/03/21 14:28:01;;;;;;;5.60;5.07;;;;;;;9.56;54.98;97817.97;8313330;28;20228;-82
2021/03/21 14:32:04;;;;;;;5.83;5.10;;;;;;;10.01;54.09;97810.00;8313674;28;20259;-82
2021/03/21 14:36:08;;;;;;;5.77;5.27;;;;;;;10.99;50.36;97796.88;8314651;28;20650;-82
2021/03/21 14:40:12;;;;;;;5.20;4.70;;;;;;;10.91;50.94;97803.25;8321261;28;20243;-82
2021/03/21 14:44:15;;;;;;;5.30;4.80;;;;;;;10.43;51.43;97799.47;8315640;28;20223;-82
2021/03/21 14:48:17;;;;;;;5.63;5.13;;;;;;;9.91;52.85;97805.22;8319731;28;20240;-81
2021/03/21 14:52:19;;;;;;;6.97;4.75;;;;;;;10.69;50.76;97793.06;8308731;28;20428;-82
2021/03/21 14:56:22;;;;;;;5.10;4.60;;;;;;;9.98;52.58;97811.00;8312130;28;20236;-80
2021/03/21 15:00:27;;;;;;;8.43;4.80;;;;;;;9.84;52.42;97798.66;8312695;28;20232;-80
2021/03/21 15:04:29;;;;;;;4.60;4.20;;;;;;;9.86;53.20;97796.88;8312137;28;20581;-79
2021/03/21 15:08:33;;;;;;;7.33;4.83;;;;;;;9.87;53.27;97789.94;8313198;28;20593;-79
2021/03/21 15:12:36;;;;;;;4.57;4.17;;;;;;;9.65;53.23;97803.78;8315145;28;20275;-79
2021/03/21 15:16:39;;;;;;;4.83;4.23;;;;;;;9.59;53.65;97796.28;8318114;28;20320;-79
2021/03/21 15:20:42;;;;;;;4.77;4.27;;;;;;;9.63;53.47;97799.59;8322349;28;20255;-81
2021/03/21 15:24:44;;;;;;;5.20;4.13;;;;;;;9.54;53.69;97798.25;8318195;28;20663;-79
2021/03/21 15:28:51;;;;;;;9.97;3.20;;;;;;;9.37;48.03;97804.16;8322231;28;20229;-80
2021/03/21 15:32:54;;;;;;;8.47;3.00;;;;;;;9.15;46.29;97796.44;8336624;28;20228;-80
2021/03/21 15:36:56;;;;;;;11.67;3.30;;;;;;;9.33;45.41;97803.44;8351726;28;20213;-80
2021/03/21 15:40:58;;;;;;;11.20;2.83;;;;;;;9.44;45.04;97810.72;8344597;28;20684;-80
2021/03/21 15:45:22;;;;;;;10.77;3.20;;;;;;;9.33;45.30;97808.59;8311745;28;20198;-80
2021/03/21 15:49:23;;;;;;;14.40;3.87;;;;;;;9.29;44.23;97809.63;8309878;28;20553;-80
2021/03/21 15:53:25;;;;;;;9.57;3.20;;;;;;;9.18;43.83;97809.22;8310189;28;20513;-80
2021/03/21 15:57:27;;;;;;;10.93;3.90;;;;;;;9.10;44.32;97799.22;8310124;28;20209;-81
2021/03/21 16:01:30;;;;;;;9.37;3.67;;;;;;;9.22;44.61;97807.38;8325948;28;20595;-81
2021/03/21 16:05:33;;;;;;;8.93;3.60;;;;;;;9.03;45.09;97799.53;8309647;28;20268;-81
2021/03/21 16:09:35;;;;;;;11.30;3.07;;;;;;;9.17;45.11;97799.78;8309293;28;20236;-80
2021/03/21 16:13:37;;;;;;;13.43;3.13;;;;;;;9.16;45.75;97808.47;8317338;28;20232;-80
2021/03/21 16:17:40;;;;;;;9.27;3.07;;;;;;;9.03;45.30;97810.69;8308521;28;20197;-80
2021/03/21 16:21:46;;;;;;;9.83;3.53;;;;;;;8.96;45.23;97825.59;8310232;28;20213;-80
2021/03/21 16:25:48;;;;;;;10.60;3.37;;;;;;;8.78;44.49;97821.16;8308794;28;20694;-80
2021/03/21 16:29:54;;;;;;;13.83;3.60;;;;;;;8.87;44.74;97830.28;8305933;28;20228;-80
2021/03/21 16:33:57;;;;;;;17.93;4.10;;;;;;;8.44;46.13;97834.53;8308231;28;20194;-80
2021/03/21 16:38:00;;;;;;;18.87;3.90;;;;;;;8.72;46.33;97834.28;8312190;28;20224;-80
2021/03/21 16:42:03;;;;;;;16.93;4.47;;;;;;;8.59;46.42;97841.69;8326760;28;20201;-80
2021/03/21 16:46:06;;;;;;;15.27;4.40;;;;;;;8.56;46.19;97840.06;8307864;28;20213;-80
2021/03/21 16:50:11;;;;;;;15.47;4.33;;;;;;;8.85;46.17;97852.75;8292226;28;20237;-80
2021/03/21 16:54:13;;;;;;;15.10;4.10;;;;;;;8.70;45.87;97860.19;8305482;28;20657;-80
2021/03/21 16:58:15;;;;;;;14.97;4.70;;;;;;;8.67;46.19;97862.88;8311066;28;20226;-80
2021/03/21 17:02:17;;;;;;;21.63;5.20;;;;;;;8.64;45.77;97869.91;8317140;28;20649;-79
2021/03/21 17:06:20;;;;;;;24.33;5.77;;;;;;;8.60;46.21;97864.00;8323728;28;20256;-79
2021/03/21 17:10:25;;;;;;;17.97;5.20;;;;;;;8.43;46.18;97866.38;8314579;28;20224;-80
2021/03/21 17:14:27;;;;;;;15.57;4.60;;;;;;;8.33;46.50;97871.84;8304467;28;20237;-79
2021/03/21 17:18:29;;;;;;;21.10;5.67;;;;;;;8.40;46.17;97875.06;8304736;28;20225;-80
2021/03/21 17:22:32;;;;;;;19.33;5.20;;;;;;;8.34;46.54;97876.13;8303803;28;20204;-79
2021/03/21 17:26:35;;;;;;;19.20;5.77;;;;;;;8.27;45.39;97886.72;8303917;28;20205;-80
2021/03/21 17:30:40;;;;;;;19.20;5.17;;;;;;;8.35;45.82;97882.97;8304827;28;20684;-80
2021/03/21 17:34:42;;;;;;;20.20;4.83;;;;;;;8.42;45.48;97888.78;8303628;28;20675;-79
2021/03/21 17:38:45;;;;;;;23.63;5.50;;;;;;;8.40;45.41;97888.81;8306047;28;20225;-81
2021/03/21 17:42:47;;;;;;;17.93;5.30;;;;;;;8.12;45.02;97888.13;8312823;28;20224;-80
2021/03/21 17:46:49;;;;;;;19.00;5.40;;;;;;;8.31;44.69;97896.03;8301009;28;20207;-80
2021/03/21 17:50:54;;;;;;;28.87;10.97;;;;;;;8.18;44.37;97899.03;8311896;28;20684;-79
2021/03/21 17:54:56;;;;;;;22.43;9.20;;;;;;;8.14;44.30;97897.47;8307087;28;20308;-78
2021/03/21 17:59:03;;;;;;;22.57;6.90;;;;;;;8.10;44.79;97908.81;8305782;28;20201;-77
2021/03/21 18:03:05;;;;;;;16.70;7.33;;;;;;;7.90;44.51;97908.66;8306668;28;20239;-78
2021/03/21 18:07:07;;;;;;;28.63;8.73;;;;;;;8.00;44.39;97916.03;8300515;28;20288;-82
2021/03/21 18:11:11;;;;;;;19.93;6.37;;;;;;;7.96;44.36;97919.63;8308295;28;20209;-81
2021/03/21 18:15:17;;;;;;;26.07;7.63;;;;;;;8.10;44.33;97915.72;8293413;28;20202;-82
2021/03/21 18:19:20;;;;;;;23.20;6.57;;;;;;;7.97;44.18;97918.69;8314973;28;20208;-82
2021/03/21 18:23:23;;;;;;;20.60;6.03;;;;;;;7.93;43.89;97921.44;8312032;28;20209;-83
2021/03/21 18:27:31;;;;;;;21.50;6.27;;;;;;;7.79;43.93;97920.19;8316489;28;20211;-80
2021/03/21 18:31:39;;;;;;;21.17;6.43;;;;;;;7.90;43.74;97935.31;8345254;28;20935;-80
2021/03/21 18:35:41;;;;;;;29.33;8.37;;;;;;;8.06;43.87;97945.91;8345737;28;20814;-79
2021/03/21 18:39:43;;;;;;;23.33;7.00;;;;;;;8.08;44.02;97943.28;8342764;28;20228;-79
2021/03/21 18:43:47;;;;;;;22.07;6.60;;;;;;;8.15;44.01;97940.44;8343017;28;20208;-79
2021/03/21 18:47:49;;;;;;;29.87;10.33;;;;;;;8.19;43.96;97936.03;8329204;28;20239;-79
2021/03/21 18:51:52;;;;;;;22.10;8.03;;;;;;;8.15;44.56;97947.34;8323385;28;20236;-79
2021/03/21 18:55:55;;;;;;;22.27;7.00;;;;;;;8.20;44.58;97943.69;8291774;28;20217;-79
2021/03/21 18:59:56;;;;;;;22.30;7.20;;;;;;;8.23;44.53;97948.75;8305777;28;20205;-79
2021/03/21 19:03:59;;;;;;;21.20;5.63;;;;;;;8.25;53.32;97943.53;8305921;28;20198;-82
2021/03/21 19:08:01;;;;;;;18.63;5.40;;;;;;;11.24;49.06;97973.59;8312227;28;20722;-82
2021/03/21 19:12:06;;;;;;;21.20;6.10;;;;;;;11.54;42.92;97966.13;8312533;28;20197;-82
2021/03/21 19:16:08;;;;;;;22.17;7.53;;;;;;;9.65;41.43;97965.84;8309345;28;20201;-78
2021/03/21 19:20:11;;;;;;;23.87;7.00;;;;;;;9.36;42.62;97968.69;8306141;28;20205;-79
2021/03/21 19:24:13;;;;;;;20.77;6.33;;;;;;;8.89;43.73;97966.22;8312852;28;20201;-79
2021/03/21 19:28:18;;;;;;;24.40;6.90;;;;;;;8.65;44.28;97975.69;8315915;28;20348;-79
2021/03/21 19:32:20;;;;;;;24.00;6.47;;;;;;;8.73;44.35;97968.50;8321259;28;20220;-80
2021/03/21 19:36:22;;;;;;;21.73;6.80;;;;;;;8.65;44.77;97987.78;8311989;28;20240;-79